sensor_id;sensor_type;location;lat;lon;timestamp;P1;durP1;ratioP1;P2;durP2;ratioP2
70026;SDS011;57506;50.092;15.804;2022-08-11T00:00:00;7.47;;;3.83;;
70026;SDS011;57506;50.092;15.804;2022-08-11T00:02:32;6.93;;;3.58;;
70026;SDS011;57506;50.092;15.804;2022-08-11T00:05:11;5.57;;;3.20;;
70026;SDS011;57506;50.092;15.804;2022-08-11T00:07:43;6.72;;;3.75;;
70026;SDS011;57506;50.092;15.804;2022-08-11T00:10:15;9.52;;;3.47;;
70026;SDS011;57506;50.092;15.804;2022-08-11T00:12:42;6.80;;;3.38;;
70026;SDS011;57506;50.092;15.804;2022-08-11T00:15:14;10.00;;;3.53;;
70026;SDS011;57506;50.092;15.804;2022-08-11T00:17:40;7.80;;;3.20;;
70026;SDS011;57506;50.092;15.804;2022-08-11T00:20:12;7.43;;;3.33;;
70026;SDS011;57506;50.092;15.804;2022-08-11T00:22:39;7.63;;;3.10;;
70026;SDS011;57506;50.092;15.804;2022-08-11T00:25:10;6.85;;;3.33;;
70026;SDS011;57506;50.092;15.804;2022-08-11T00:27:38;5.70;;;3.20;;
70026;SDS011;57506;50.092;15.804;2022-08-11T00:30:08;6.00;;;3.28;;
70026;SDS011;57506;50.092;15.804;2022-08-11T00:32:42;10.57;;;4.10;;
70026;SDS011;57506;50.092;15.804;2022-08-11T00:35:12;6.63;;;3.53;;
70026;SDS011;57506;50.092;15.804;2022-08-11T00:37:47;7.18;;;3.42;;
70026;SDS011;57506;50.092;15.804;2022-08-11T00:40:18;9.27;;;3.47;;
70026;SDS011;57506;50.092;15.804;2022-08-11T00:43:00;7.05;;;4.00;;
70026;SDS011;57506;50.092;15.804;2022-08-11T00:45:41;6.50;;;3.90;;
70026;SDS011;57506;50.092;15.804;2022-08-11T00:48:27;8.77;;;4.03;;
70026;SDS011;57506;50.092;15.804;2022-08-11T00:51:17;7.95;;;3.45;;
70026;SDS011;57506;50.092;15.804;2022-08-11T00:54:24;5.93;;;3.57;;
70026;SDS011;57506;50.092;15.804;2022-08-11T01:30:06;7.53;;;3.75;;
70026;SDS011;57506;50.092;15.804;2022-08-11T01:38:19;8.20;;;4.00;;
70026;SDS011;57506;50.092;15.804;2022-08-11T01:59:16;9.30;;;5.07;;
70026;SDS011;57506;50.092;15.804;2022-08-11T02:07:08;9.48;;;4.80;;
70026;SDS011;57506;50.092;15.804;2022-08-11T02:12:15;9.80;;;4.83;;
70026;SDS011;57506;50.092;15.804;2022-08-11T02:20:22;9.68;;;4.80;;
70026;SDS011;57506;50.092;15.804;2022-08-11T02:28:41;6.97;;;4.00;;
70026;SDS011;57506;50.092;15.804;2022-08-11T02:50:40;8.27;;;5.18;;
70026;SDS011;57506;50.092;15.804;2022-08-11T02:58:44;13.15;;;5.07;;
70026;SDS011;57506;50.092;15.804;2022-08-11T03:01:54;9.00;;;4.93;;
70026;SDS011;57506;50.092;15.804;2022-08-11T03:13:48;8.88;;;5.78;;
70026;SDS011;57506;50.092;15.804;2022-08-11T03:33:31;13.52;;;5.55;;
70026;SDS011;57506;50.092;15.804;2022-08-11T04:02:18;7.43;;;4.97;;
70026;SDS011;57506;50.092;15.804;2022-08-11T04:19:29;10.80;;;5.25;;
70026;SDS011;57506;50.092;15.804;2022-08-11T04:33:52;13.60;;;5.93;;
70026;SDS011;57506;50.092;15.804;2022-08-11T04:48:38;8.70;;;5.35;;
70026;SDS011;57506;50.092;15.804;2022-08-11T04:55:31;9.07;;;5.30;;
70026;SDS011;57506;50.092;15.804;2022-08-11T05:13:29;9.43;;;6.00;;
70026;SDS011;57506;50.092;15.804;2022-08-11T05:16:17;13.30;;;5.95;;
70026;SDS011;57506;50.092;15.804;2022-08-11T05:19:06;10.07;;;5.93;;
70026;SDS011;57506;50.092;15.804;2022-08-11T05:21:58;8.48;;;5.63;;
70026;SDS011;57506;50.092;15.804;2022-08-11T05:24:43;12.23;;;5.88;;
70026;SDS011;57506;50.092;15.804;2022-08-11T05:27:37;10.53;;;5.57;;
70026;SDS011;57506;50.092;15.804;2022-08-11T05:30:28;8.73;;;5.90;;
70026;SDS011;57506;50.092;15.804;2022-08-11T05:33:16;11.73;;;5.78;;
70026;SDS011;57506;50.092;15.804;2022-08-11T05:36:15;11.98;;;6.10;;
70026;SDS011;57506;50.092;15.804;2022-08-11T05:38:55;9.82;;;6.25;;
70026;SDS011;57506;50.092;15.804;2022-08-11T05:41:42;12.53;;;6.40;;
70026;SDS011;57506;50.092;15.804;2022-08-11T05:44:26;11.05;;;5.95;;
70026;SDS011;57506;50.092;15.804;2022-08-11T05:47:23;12.50;;;5.85;;
70026;SDS011;57506;50.092;15.804;2022-08-11T05:50:10;11.68;;;5.70;;
70026;SDS011;57506;50.092;15.804;2022-08-11T05:52:55;11.23;;;5.97;;
70026;SDS011;57506;50.092;15.804;2022-08-11T05:55:41;9.87;;;5.80;;
70026;SDS011;57506;50.092;15.804;2022-08-11T05:58:30;9.93;;;5.88;;
70026;SDS011;57506;50.092;15.804;2022-08-11T06:01:00;10.25;;;5.22;;
70026;SDS011;57506;50.092;15.804;2022-08-11T06:03:28;8.38;;;5.53;;
70026;SDS011;57506;50.092;15.804;2022-08-11T06:05:55;8.32;;;4.95;;
70026;SDS011;57506;50.092;15.804;2022-08-11T06:08:27;8.50;;;4.77;;
70026;SDS011;57506;50.092;15.804;2022-08-11T06:10:58;8.05;;;4.95;;
70026;SDS011;57506;50.092;15.804;2022-08-11T06:13:25;7.57;;;4.63;;
70026;SDS011;57506;50.092;15.804;2022-08-11T06:15:52;7.60;;;5.13;;
70026;SDS011;57506;50.092;15.804;2022-08-11T06:18:20;7.47;;;4.80;;
70026;SDS011;57506;50.092;15.804;2022-08-11T06:20:49;8.17;;;5.07;;
70026;SDS011;57506;50.092;15.804;2022-08-11T06:23:20;11.10;;;5.22;;
70026;SDS011;57506;50.092;15.804;2022-08-11T06:25:47;9.93;;;5.15;;
70026;SDS011;57506;50.092;15.804;2022-08-11T06:28:15;10.63;;;4.90;;
70026;SDS011;57506;50.092;15.804;2022-08-11T06:30:46;10.05;;;4.85;;
70026;SDS011;57506;50.092;15.804;2022-08-11T06:38:38;8.98;;;4.55;;
70026;SDS011;57506;50.092;15.804;2022-08-11T06:46:47;7.77;;;4.20;;
70026;SDS011;57506;50.092;15.804;2022-08-11T06:49:16;9.45;;;4.60;;
70026;SDS011;57506;50.092;15.804;2022-08-11T06:52:03;9.45;;;4.18;;
70026;SDS011;57506;50.092;15.804;2022-08-11T06:54:42;8.18;;;3.72;;
70026;SDS011;57506;50.092;15.804;2022-08-11T06:57:19;6.88;;;4.00;;
70026;SDS011;57506;50.092;15.804;2022-08-11T07:00:03;7.17;;;4.37;;
70026;SDS011;57506;50.092;15.804;2022-08-11T07:14:24;6.00;;;3.40;;
70026;SDS011;57506;50.092;15.804;2022-08-11T07:17:13;6.88;;;3.63;;
70026;SDS011;57506;50.092;15.804;2022-08-11T07:19:42;8.13;;;3.03;;
70026;SDS011;57506;50.092;15.804;2022-08-11T07:22:33;8.27;;;3.17;;
70026;SDS011;57506;50.092;15.804;2022-08-11T07:25:19;6.22;;;3.60;;
70026;SDS011;57506;50.092;15.804;2022-08-11T07:28:27;7.20;;;3.40;;
70026;SDS011;57506;50.092;15.804;2022-08-11T07:31:13;7.78;;;3.13;;
70026;SDS011;57506;50.092;15.804;2022-08-11T07:33:46;6.70;;;3.22;;
70026;SDS011;57506;50.092;15.804;2022-08-11T07:36:14;6.88;;;3.17;;
70026;SDS011;57506;50.092;15.804;2022-08-11T07:38:47;8.77;;;2.75;;
70026;SDS011;57506;50.092;15.804;2022-08-11T07:41:19;5.37;;;2.90;;
70026;SDS011;57506;50.092;15.804;2022-08-11T07:43:49;6.07;;;2.90;;
70026;SDS011;57506;50.092;15.804;2022-08-11T07:46:19;6.25;;;2.60;;
70026;SDS011;57506;50.092;15.804;2022-08-11T07:49:04;7.07;;;2.90;;
70026;SDS011;57506;50.092;15.804;2022-08-11T07:51:52;4.50;;;2.50;;
70026;SDS011;57506;50.092;15.804;2022-08-11T07:54:37;6.10;;;2.40;;
70026;SDS011;57506;50.092;15.804;2022-08-11T07:57:08;9.90;;;3.03;;
70026;SDS011;57506;50.092;15.804;2022-08-11T07:59:53;8.18;;;2.60;;
70026;SDS011;57506;50.092;15.804;2022-08-11T08:02:40;4.78;;;2.67;;
70026;SDS011;57506;50.092;15.804;2022-08-11T08:05:26;8.27;;;2.75;;
70026;SDS011;57506;50.092;15.804;2022-08-11T08:08:10;7.43;;;2.67;;
70026;SDS011;57506;50.092;15.804;2022-08-11T08:10:58;8.60;;;2.63;;
70026;SDS011;57506;50.092;15.804;2022-08-11T08:13:43;6.38;;;2.60;;
70026;SDS011;57506;50.092;15.804;2022-08-11T08:16:28;7.13;;;2.42;;
70026;SDS011;57506;50.092;15.804;2022-08-11T08:19:14;9.10;;;2.72;;
70026;SDS011;57506;50.092;15.804;2022-08-11T08:21:41;5.63;;;2.80;;
70026;SDS011;57506;50.092;15.804;2022-08-11T08:24:08;5.65;;;2.58;;
70026;SDS011;57506;50.092;15.804;2022-08-11T08:26:34;6.38;;;2.40;;
70026;SDS011;57506;50.092;15.804;2022-08-11T08:29:20;6.20;;;2.42;;
70026;SDS011;57506;50.092;15.804;2022-08-11T08:32:05;7.05;;;2.28;;
70026;SDS011;57506;50.092;15.804;2022-08-11T08:34:33;5.40;;;2.30;;
70026;SDS011;57506;50.092;15.804;2022-08-11T08:37:01;4.95;;;2.33;;
70026;SDS011;57506;50.092;15.804;2022-08-11T08:39:28;6.38;;;1.95;;
70026;SDS011;57506;50.092;15.804;2022-08-11T08:41:55;4.75;;;1.60;;
70026;SDS011;57506;50.092;15.804;2022-08-11T08:44:23;9.57;;;2.00;;
70026;SDS011;57506;50.092;15.804;2022-08-11T08:46:53;5.60;;;1.90;;
70026;SDS011;57506;50.092;15.804;2022-08-11T08:49:34;4.10;;;2.00;;
70026;SDS011;57506;50.092;15.804;2022-08-11T08:52:03;5.60;;;2.00;;
70026;SDS011;57506;50.092;15.804;2022-08-11T08:54:32;5.68;;;2.03;;
70026;SDS011;57506;50.092;15.804;2022-08-11T08:57:02;14.15;;;2.00;;
70026;SDS011;57506;50.092;15.804;2022-08-11T08:59:30;5.63;;;1.63;;
70026;SDS011;57506;50.092;15.804;2022-08-11T09:02:00;4.38;;;1.63;;
70026;SDS011;57506;50.092;15.804;2022-08-11T09:04:28;3.85;;;1.70;;
70026;SDS011;57506;50.092;15.804;2022-08-11T09:06:57;4.40;;;1.58;;
70026;SDS011;57506;50.092;15.804;2022-08-11T09:09:24;3.55;;;1.80;;
70026;SDS011;57506;50.092;15.804;2022-08-11T09:11:51;5.00;;;2.00;;
70026;SDS011;57506;50.092;15.804;2022-08-11T09:14:31;5.05;;;1.98;;
70026;SDS011;57506;50.092;15.804;2022-08-11T09:17:17;4.70;;;1.55;;
70026;SDS011;57506;50.092;15.804;2022-08-11T09:19:45;4.82;;;1.60;;
70026;SDS011;57506;50.092;15.804;2022-08-11T09:22:11;6.20;;;1.67;;
70026;SDS011;57506;50.092;15.804;2022-08-11T09:24:56;3.23;;;1.60;;
70026;SDS011;57506;50.092;15.804;2022-08-11T09:27:40;7.00;;;2.08;;
70026;SDS011;57506;50.092;15.804;2022-08-11T09:30:08;4.85;;;1.70;;
70026;SDS011;57506;50.092;15.804;2022-08-11T09:32:36;4.30;;;1.70;;
70026;SDS011;57506;50.092;15.804;2022-08-11T09:35:04;4.28;;;1.63;;
70026;SDS011;57506;50.092;15.804;2022-08-11T09:37:32;6.70;;;1.63;;
70026;SDS011;57506;50.092;15.804;2022-08-11T09:40:17;4.50;;;1.80;;
70026;SDS011;57506;50.092;15.804;2022-08-11T09:42:58;4.60;;;1.52;;
70026;SDS011;57506;50.092;15.804;2022-08-11T09:45:46;4.38;;;1.40;;
70026;SDS011;57506;50.092;15.804;2022-08-11T09:48:17;3.67;;;1.60;;
70026;SDS011;57506;50.092;15.804;2022-08-11T09:50:47;3.83;;;1.63;;
70026;SDS011;57506;50.092;15.804;2022-08-11T09:53:15;5.63;;;1.63;;
70026;SDS011;57506;50.092;15.804;2022-08-11T09:55:42;5.50;;;1.55;;
70026;SDS011;57506;50.092;15.804;2022-08-11T09:58:12;4.38;;;1.80;;
70026;SDS011;57506;50.092;15.804;2022-08-11T10:00:40;4.10;;;1.90;;
70026;SDS011;57506;50.092;15.804;2022-08-11T10:03:11;5.47;;;1.70;;
70026;SDS011;57506;50.092;15.804;2022-08-11T10:05:42;4.93;;;1.80;;
70026;SDS011;57506;50.092;15.804;2022-08-11T10:08:29;3.20;;;1.50;;
70026;SDS011;57506;50.092;15.804;2022-08-11T10:10:57;4.72;;;1.80;;
70026;SDS011;57506;50.092;15.804;2022-08-11T10:13:28;5.30;;;1.90;;
70026;SDS011;57506;50.092;15.804;2022-08-11T10:15:59;4.10;;;1.67;;
70026;SDS011;57506;50.092;15.804;2022-08-11T10:18:40;5.47;;;1.60;;
70026;SDS011;57506;50.092;15.804;2022-08-11T10:21:40;5.05;;;1.50;;
70026;SDS011;57506;50.092;15.804;2022-08-11T10:24:05;3.92;;;1.30;;
70026;SDS011;57506;50.092;15.804;2022-08-11T10:26:51;3.60;;;1.50;;
70026;SDS011;57506;50.092;15.804;2022-08-11T10:32:10;3.90;;;1.60;;
70026;SDS011;57506;50.092;15.804;2022-08-11T10:34:55;5.63;;;1.50;;
70026;SDS011;57506;50.092;15.804;2022-08-11T10:37:23;4.95;;;1.80;;
70026;SDS011;57506;50.092;15.804;2022-08-11T10:39:50;4.30;;;1.63;;
70026;SDS011;57506;50.092;15.804;2022-08-11T10:42:20;6.20;;;1.80;;
70026;SDS011;57506;50.092;15.804;2022-08-11T10:45:05;3.60;;;1.50;;
70026;SDS011;57506;50.092;15.804;2022-08-11T10:47:52;4.22;;;1.33;;
70026;SDS011;57506;50.092;15.804;2022-08-11T10:50:20;4.47;;;1.40;;
70026;SDS011;57506;50.092;15.804;2022-08-11T10:53:05;4.53;;;1.60;;
70026;SDS011;57506;50.092;15.804;2022-08-11T10:55:50;4.37;;;1.60;;
70026;SDS011;57506;50.092;15.804;2022-08-11T10:58:35;4.90;;;1.50;;
70026;SDS011;57506;50.092;15.804;2022-08-11T11:01:20;4.47;;;1.77;;
70026;SDS011;57506;50.092;15.804;2022-08-11T11:03:53;3.50;;;1.63;;
70026;SDS011;57506;50.092;15.804;2022-08-11T11:09:30;6.17;;;1.63;;
70026;SDS011;57506;50.092;15.804;2022-08-11T11:12:20;5.78;;;1.80;;
70026;SDS011;57506;50.092;15.804;2022-08-11T11:15:08;4.25;;;1.40;;
70026;SDS011;57506;50.092;15.804;2022-08-11T11:17:58;2.83;;;1.20;;
70026;SDS011;57506;50.092;15.804;2022-08-11T11:20:38;4.20;;;1.60;;
70026;SDS011;57506;50.092;15.804;2022-08-11T11:23:19;6.87;;;1.47;;
70026;SDS011;57506;50.092;15.804;2022-08-11T11:34:40;3.30;;;1.63;;
70026;SDS011;57506;50.092;15.804;2022-08-11T11:37:10;3.67;;;1.80;;
70026;SDS011;57506;50.092;15.804;2022-08-11T11:39:38;6.75;;;1.38;;
70026;SDS011;57506;50.092;15.804;2022-08-11T11:42:05;6.03;;;1.55;;
70026;SDS011;57506;50.092;15.804;2022-08-11T11:44:33;3.80;;;1.50;;
70026;SDS011;57506;50.092;15.804;2022-08-11T11:47:02;5.55;;;1.60;;
70026;SDS011;57506;50.092;15.804;2022-08-11T11:49:29;4.00;;;1.87;;
70026;SDS011;57506;50.092;15.804;2022-08-11T11:51:57;3.88;;;1.52;;
70026;SDS011;57506;50.092;15.804;2022-08-11T11:54:29;3.35;;;1.45;;
70026;SDS011;57506;50.092;15.804;2022-08-11T11:56:56;4.78;;;1.92;;
70026;SDS011;57506;50.092;15.804;2022-08-11T11:59:43;4.97;;;1.80;;
70026;SDS011;57506;50.092;15.804;2022-08-11T12:02:28;5.57;;;1.77;;
70026;SDS011;57506;50.092;15.804;2022-08-11T12:04:54;4.05;;;1.65;;
70026;SDS011;57506;50.092;15.804;2022-08-11T12:07:20;3.60;;;1.95;;
70026;SDS011;57506;50.092;15.804;2022-08-11T12:10:05;5.13;;;1.67;;
70026;SDS011;57506;50.092;15.804;2022-08-11T12:12:32;4.65;;;1.73;;
70026;SDS011;57506;50.092;15.804;2022-08-11T12:15:17;4.07;;;1.77;;
70026;SDS011;57506;50.092;15.804;2022-08-11T12:17:43;5.82;;;1.80;;
70026;SDS011;57506;50.092;15.804;2022-08-11T12:20:11;3.88;;;1.48;;
70026;SDS011;57506;50.092;15.804;2022-08-11T12:22:40;4.18;;;1.38;;
70026;SDS011;57506;50.092;15.804;2022-08-11T12:25:24;3.67;;;1.60;;
70026;SDS011;57506;50.092;15.804;2022-08-11T12:28:09;4.17;;;1.70;;
70026;SDS011;57506;50.092;15.804;2022-08-11T12:30:35;6.15;;;1.77;;
70026;SDS011;57506;50.092;15.804;2022-08-11T12:33:06;3.67;;;1.30;;
70026;SDS011;57506;50.092;15.804;2022-08-11T12:35:32;7.47;;;1.95;;
70026;SDS011;57506;50.092;15.804;2022-08-11T12:37:59;4.30;;;1.43;;
70026;SDS011;57506;50.092;15.804;2022-08-11T12:40:27;4.50;;;1.90;;
70026;SDS011;57506;50.092;15.804;2022-08-11T12:43:13;4.53;;;1.83;;
70026;SDS011;57506;50.092;15.804;2022-08-11T12:46:03;5.85;;;1.60;;
70026;SDS011;57506;50.092;15.804;2022-08-11T12:48:55;3.55;;;1.73;;
70026;SDS011;57506;50.092;15.804;2022-08-11T12:51:45;4.73;;;1.50;;
70026;SDS011;57506;50.092;15.804;2022-08-11T12:54:34;5.07;;;1.50;;
70026;SDS011;57506;50.092;15.804;2022-08-11T12:57:38;5.65;;;1.75;;
70026;SDS011;57506;50.092;15.804;2022-08-11T13:00:27;3.95;;;1.60;;
70026;SDS011;57506;50.092;15.804;2022-08-11T13:03:13;5.38;;;1.83;;
70026;SDS011;57506;50.092;15.804;2022-08-11T13:06:01;6.00;;;1.70;;
70026;SDS011;57506;50.092;15.804;2022-08-11T13:08:30;5.55;;;1.70;;
70026;SDS011;57506;50.092;15.804;2022-08-11T13:10:58;4.28;;;1.70;;
70026;SDS011;57506;50.092;15.804;2022-08-11T13:13:44;4.75;;;1.85;;
70026;SDS011;57506;50.092;15.804;2022-08-11T13:16:12;3.95;;;1.80;;
70026;SDS011;57506;50.092;15.804;2022-08-11T13:18:39;4.53;;;1.73;;
70026;SDS011;57506;50.092;15.804;2022-08-11T13:21:08;3.85;;;1.70;;
70026;SDS011;57506;50.092;15.804;2022-08-11T13:23:38;3.40;;;1.58;;
70026;SDS011;57506;50.092;15.804;2022-08-11T13:26:04;4.47;;;1.60;;
70026;SDS011;57506;50.092;15.804;2022-08-11T13:28:33;3.90;;;1.60;;
70026;SDS011;57506;50.092;15.804;2022-08-11T13:31:03;4.10;;;1.80;;
70026;SDS011;57506;50.092;15.804;2022-08-11T13:33:43;4.65;;;1.55;;
70026;SDS011;57506;50.092;15.804;2022-08-11T13:36:13;5.28;;;1.70;;
70026;SDS011;57506;50.092;15.804;2022-08-11T13:38:44;4.65;;;1.88;;
70026;SDS011;57506;50.092;15.804;2022-08-11T13:41:10;4.57;;;1.80;;
70026;SDS011;57506;50.092;15.804;2022-08-11T13:43:55;4.43;;;1.63;;
70026;SDS011;57506;50.092;15.804;2022-08-11T13:46:21;4.20;;;1.73;;
70026;SDS011;57506;50.092;15.804;2022-08-11T13:48:53;3.83;;;1.70;;
70026;SDS011;57506;50.092;15.804;2022-08-11T13:51:21;4.10;;;1.55;;
70026;SDS011;57506;50.092;15.804;2022-08-11T13:54:37;6.30;;;1.60;;
70026;SDS011;57506;50.092;15.804;2022-08-11T13:56:47;4.83;;;2.10;;
70026;SDS011;57506;50.092;15.804;2022-08-11T13:59:17;5.35;;;1.58;;
70026;SDS011;57506;50.092;15.804;2022-08-11T14:01:47;7.85;;;1.60;;
70026;SDS011;57506;50.092;15.804;2022-08-11T14:04:19;4.07;;;1.70;;
70026;SDS011;57506;50.092;15.804;2022-08-11T14:06:51;3.88;;;1.58;;
70026;SDS011;57506;50.092;15.804;2022-08-11T14:09:20;4.80;;;1.80;;
70026;SDS011;57506;50.092;15.804;2022-08-11T14:11:49;5.10;;;1.60;;
70026;SDS011;57506;50.092;15.804;2022-08-11T14:14:35;4.30;;;1.40;;
70026;SDS011;57506;50.092;15.804;2022-08-11T14:17:03;4.88;;;1.45;;
70026;SDS011;57506;50.092;15.804;2022-08-11T14:19:34;4.45;;;1.75;;
70026;SDS011;57506;50.092;15.804;2022-08-11T14:22:03;4.90;;;1.60;;
70026;SDS011;57506;50.092;15.804;2022-08-11T14:24:31;4.00;;;1.95;;
70026;SDS011;57506;50.092;15.804;2022-08-11T14:26:59;4.95;;;1.63;;
70026;SDS011;57506;50.092;15.804;2022-08-11T14:29:26;5.57;;;1.50;;
70026;SDS011;57506;50.092;15.804;2022-08-11T14:31:54;3.97;;;1.85;;
70026;SDS011;57506;50.092;15.804;2022-08-11T14:34:25;3.47;;;1.70;;
70026;SDS011;57506;50.092;15.804;2022-08-11T14:36:59;4.15;;;1.98;;
70026;SDS011;57506;50.092;15.804;2022-08-11T14:39:27;8.38;;;1.90;;
70026;SDS011;57506;50.092;15.804;2022-08-11T14:42:09;4.10;;;1.75;;
70026;SDS011;57506;50.092;15.804;2022-08-11T14:44:55;5.05;;;2.05;;
70026;SDS011;57506;50.092;15.804;2022-08-11T14:47:43;5.30;;;1.93;;
70026;SDS011;57506;50.092;15.804;2022-08-11T14:50:13;4.75;;;1.90;;
70026;SDS011;57506;50.092;15.804;2022-08-11T14:55:40;4.38;;;1.60;;
70026;SDS011;57506;50.092;15.804;2022-08-11T14:58:27;4.65;;;1.80;;
70026;SDS011;57506;50.092;15.804;2022-08-11T15:00:57;3.63;;;1.73;;
70026;SDS011;57506;50.092;15.804;2022-08-11T15:03:26;4.65;;;1.73;;
70026;SDS011;57506;50.092;15.804;2022-08-11T15:05:56;3.83;;;1.85;;
70026;SDS011;57506;50.092;15.804;2022-08-11T15:08:30;4.03;;;1.98;;
70026;SDS011;57506;50.092;15.804;2022-08-11T15:11:17;4.15;;;2.13;;
70026;SDS011;57506;50.092;15.804;2022-08-11T15:14:04;4.83;;;1.90;;
70026;SDS011;57506;50.092;15.804;2022-08-11T15:16:31;4.93;;;1.80;;
70026;SDS011;57506;50.092;15.804;2022-08-11T15:19:16;5.82;;;2.28;;
70026;SDS011;57506;50.092;15.804;2022-08-11T15:21:45;5.15;;;2.22;;
70026;SDS011;57506;50.092;15.804;2022-08-11T15:24:30;4.43;;;2.10;;
70026;SDS011;57506;50.092;15.804;2022-08-11T15:26:59;5.30;;;2.23;;
70026;SDS011;57506;50.092;15.804;2022-08-11T15:30:02;6.75;;;2.38;;
70026;SDS011;57506;50.092;15.804;2022-08-11T15:32:47;5.07;;;2.10;;
70026;SDS011;57506;50.092;15.804;2022-08-11T15:35:33;4.22;;;2.03;;
70026;SDS011;57506;50.092;15.804;2022-08-11T15:38:20;5.20;;;2.15;;
70026;SDS011;57506;50.092;15.804;2022-08-11T15:40:47;5.83;;;2.13;;
70026;SDS011;57506;50.092;15.804;2022-08-11T15:43:40;4.20;;;1.95;;
70026;SDS011;57506;50.092;15.804;2022-08-11T15:49:00;7.05;;;2.03;;
70026;SDS011;57506;50.092;15.804;2022-08-11T15:51:36;6.35;;;2.00;;
70026;SDS011;57506;50.092;15.804;2022-08-11T15:54:07;4.53;;;1.97;;
70026;SDS011;57506;50.092;15.804;2022-08-11T15:56:40;3.80;;;2.25;;
70026;SDS011;57506;50.092;15.804;2022-08-11T15:59:10;5.28;;;2.08;;
70026;SDS011;57506;50.092;15.804;2022-08-11T16:01:56;11.38;;;1.88;;
70026;SDS011;57506;50.092;15.804;2022-08-11T16:04:43;4.22;;;2.10;;
70026;SDS011;57506;50.092;15.804;2022-08-11T16:07:14;4.70;;;1.90;;
70026;SDS011;57506;50.092;15.804;2022-08-11T16:12:40;4.13;;;1.90;;
70026;SDS011;57506;50.092;15.804;2022-08-11T16:15:28;4.43;;;1.45;;
70026;SDS011;57506;50.092;15.804;2022-08-11T16:18:19;5.93;;;1.98;;
70026;SDS011;57506;50.092;15.804;2022-08-11T16:20:49;5.27;;;1.73;;
70026;SDS011;57506;50.092;15.804;2022-08-11T16:23:19;4.65;;;1.92;;
70026;SDS011;57506;50.092;15.804;2022-08-11T16:25:50;3.75;;;1.50;;
70026;SDS011;57506;50.092;15.804;2022-08-11T16:28:19;7.55;;;1.83;;
70026;SDS011;57506;50.092;15.804;2022-08-11T16:30:45;4.75;;;2.03;;
70026;SDS011;57506;50.092;15.804;2022-08-11T16:33:13;3.60;;;1.77;;
70026;SDS011;57506;50.092;15.804;2022-08-11T16:35:40;3.72;;;1.73;;
70026;SDS011;57506;50.092;15.804;2022-08-11T16:38:26;3.85;;;1.58;;
70026;SDS011;57506;50.092;15.804;2022-08-11T16:41:13;4.75;;;1.65;;
70026;SDS011;57506;50.092;15.804;2022-08-11T16:44:06;3.00;;;1.73;;
70026;SDS011;57506;50.092;15.804;2022-08-11T16:46:52;4.60;;;1.60;;
70026;SDS011;57506;50.092;15.804;2022-08-11T16:49:25;3.75;;;1.90;;
70026;SDS011;57506;50.092;15.804;2022-08-11T16:51:58;4.82;;;1.90;;
70026;SDS011;57506;50.092;15.804;2022-08-11T16:54:29;3.63;;;1.65;;
70026;SDS011;57506;50.092;15.804;2022-08-11T16:56:56;6.65;;;2.10;;
70026;SDS011;57506;50.092;15.804;2022-08-11T16:59:44;5.70;;;1.90;;
70026;SDS011;57506;50.092;15.804;2022-08-11T17:02:11;10.48;;;1.88;;
70026;SDS011;57506;50.092;15.804;2022-08-11T17:05:23;3.58;;;1.90;;
70026;SDS011;57506;50.092;15.804;2022-08-11T17:08:09;4.47;;;1.92;;
70026;SDS011;57506;50.092;15.804;2022-08-11T17:11:01;4.68;;;1.50;;
70026;SDS011;57506;50.092;15.804;2022-08-11T17:13:48;7.80;;;2.00;;
70026;SDS011;57506;50.092;15.804;2022-08-11T17:16:20;4.65;;;1.30;;
70026;SDS011;57506;50.092;15.804;2022-08-11T17:19:00;4.45;;;1.90;;
70026;SDS011;57506;50.092;15.804;2022-08-11T17:21:39;6.88;;;1.88;;
70026;SDS011;57506;50.092;15.804;2022-08-11T17:24:34;5.82;;;1.55;;
70026;SDS011;57506;50.092;15.804;2022-08-11T17:27:02;6.13;;;2.00;;
70026;SDS011;57506;50.092;15.804;2022-08-11T17:29:39;6.55;;;1.90;;
70026;SDS011;57506;50.092;15.804;2022-08-11T17:32:17;6.22;;;1.90;;
70026;SDS011;57506;50.092;15.804;2022-08-11T17:35:07;7.55;;;1.67;;
70026;SDS011;57506;50.092;15.804;2022-08-11T17:37:55;5.22;;;1.73;;
70026;SDS011;57506;50.092;15.804;2022-08-11T17:40:45;4.03;;;1.60;;
70026;SDS011;57506;50.092;15.804;2022-08-11T17:43:34;4.32;;;1.52;;
70026;SDS011;57506;50.092;15.804;2022-08-11T17:46:20;7.13;;;1.77;;
70026;SDS011;57506;50.092;15.804;2022-08-11T17:49:06;4.57;;;1.60;;
70026;SDS011;57506;50.092;15.804;2022-08-11T17:51:35;6.30;;;1.50;;
70026;SDS011;57506;50.092;15.804;2022-08-11T17:54:21;12.23;;;1.67;;
70026;SDS011;57506;50.092;15.804;2022-08-11T17:57:07;5.22;;;1.33;;
70026;SDS011;57506;50.092;15.804;2022-08-11T17:59:52;4.07;;;1.20;;
70026;SDS011;57506;50.092;15.804;2022-08-11T18:02:22;4.05;;;1.50;;
70026;SDS011;57506;50.092;15.804;2022-08-11T18:05:11;3.60;;;1.55;;
70026;SDS011;57506;50.092;15.804;2022-08-11T18:07:39;5.03;;;1.77;;
70026;SDS011;57506;50.092;15.804;2022-08-11T18:10:26;4.97;;;1.52;;
70026;SDS011;57506;50.092;15.804;2022-08-11T18:13:13;4.78;;;1.15;;
70026;SDS011;57506;50.092;15.804;2022-08-11T18:16:01;4.50;;;1.33;;
70026;SDS011;57506;50.092;15.804;2022-08-11T18:18:45;3.00;;;1.30;;
70026;SDS011;57506;50.092;15.804;2022-08-11T18:21:30;4.77;;;1.43;;
70026;SDS011;57506;50.092;15.804;2022-08-11T18:24:15;8.38;;;1.30;;
70026;SDS011;57506;50.092;15.804;2022-08-11T18:27:05;5.15;;;1.40;;
70026;SDS011;57506;50.092;15.804;2022-08-11T18:29:53;4.20;;;1.50;;
70026;SDS011;57506;50.092;15.804;2022-08-11T18:32:41;8.05;;;1.52;;
70026;SDS011;57506;50.092;15.804;2022-08-11T18:35:26;5.10;;;1.30;;
70026;SDS011;57506;50.092;15.804;2022-08-11T18:38:11;5.22;;;1.40;;
70026;SDS011;57506;50.092;15.804;2022-08-11T18:40:57;4.57;;;1.10;;
70026;SDS011;57506;50.092;15.804;2022-08-11T18:43:44;5.72;;;1.10;;
70026;SDS011;57506;50.092;15.804;2022-08-11T18:46:33;4.20;;;1.30;;
70026;SDS011;57506;50.092;15.804;2022-08-11T18:49:21;4.30;;;1.30;;
70026;SDS011;57506;50.092;15.804;2022-08-11T18:52:10;9.32;;;1.55;;
70026;SDS011;57506;50.092;15.804;2022-08-11T18:54:58;4.15;;;1.17;;
70026;SDS011;57506;50.092;15.804;2022-08-11T18:57:45;7.32;;;1.40;;
70026;SDS011;57506;50.092;15.804;2022-08-11T19:00:31;3.58;;;1.38;;
70026;SDS011;57506;50.092;15.804;2022-08-11T19:03:18;3.03;;;1.10;;
70026;SDS011;57506;50.092;15.804;2022-08-11T19:06:04;6.10;;;1.50;;
70026;SDS011;57506;50.092;15.804;2022-08-11T19:09:01;7.22;;;1.50;;
70026;SDS011;57506;50.092;15.804;2022-08-11T19:11:47;4.90;;;1.65;;
70026;SDS011;57506;50.092;15.804;2022-08-11T19:14:32;4.43;;;1.25;;
70026;SDS011;57506;50.092;15.804;2022-08-11T19:17:20;4.53;;;1.30;;
70026;SDS011;57506;50.092;15.804;2022-08-11T19:20:12;6.20;;;1.23;;
70026;SDS011;57506;50.092;15.804;2022-08-11T19:23:01;4.43;;;1.35;;
70026;SDS011;57506;50.092;15.804;2022-08-11T19:25:47;5.57;;;1.58;;
70026;SDS011;57506;50.092;15.804;2022-08-11T19:28:33;4.95;;;1.30;;
70026;SDS011;57506;50.092;15.804;2022-08-11T19:31:19;4.43;;;1.00;;
70026;SDS011;57506;50.092;15.804;2022-08-11T19:34:04;4.22;;;0.95;;
70026;SDS011;57506;50.092;15.804;2022-08-11T19:36:51;5.60;;;1.10;;
70026;SDS011;57506;50.092;15.804;2022-08-11T19:39:37;3.55;;;1.25;;
70026;SDS011;57506;50.092;15.804;2022-08-11T19:42:23;6.30;;;1.30;;
70026;SDS011;57506;50.092;15.804;2022-08-11T19:45:10;6.20;;;1.30;;
70026;SDS011;57506;50.092;15.804;2022-08-11T19:47:54;4.35;;;1.50;;
70026;SDS011;57506;50.092;15.804;2022-08-11T19:50:38;6.20;;;1.25;;
70026;SDS011;57506;50.092;15.804;2022-08-11T19:53:24;4.55;;;1.67;;